sensor_id;sensor_type;location;lat;lon;timestamp;P1;durP1;ratioP1;P2;durP2;ratioP2
3095;SDS011;1558;42.700;23.360;2023-01-15T00:00:59;20.97;;;16.60;;
3095;SDS011;1558;42.700;23.360;2023-01-15T00:03:28;21.80;;;16.73;;
3095;SDS011;1558;42.700;23.360;2023-01-15T00:06:00;22.93;;;17.13;;
3095;SDS011;1558;42.700;23.360;2023-01-15T00:08:28;20.27;;;16.30;;
3095;SDS011;1558;42.700;23.360;2023-01-15T00:10:56;22.43;;;17.00;;
3095;SDS011;1558;42.700;23.360;2023-01-15T00:13:24;22.13;;;17.03;;
3095;SDS011;1558;42.700;23.360;2023-01-15T00:15:59;22.03;;;17.20;;
3095;SDS011;1558;42.700;23.360;2023-01-15T00:18:29;23.23;;;17.80;;
3095;SDS011;1558;42.700;23.360;2023-01-15T00:20:58;22.77;;;17.77;;
3095;SDS011;1558;42.700;23.360;2023-01-15T00:23:26;22.00;;;17.20;;
3095;SDS011;1558;42.700;23.360;2023-01-15T00:26:14;22.37;;;16.80;;
3095;SDS011;1558;42.700;23.360;2023-01-15T00:29:00;21.13;;;16.97;;
3095;SDS011;1558;42.700;23.360;2023-01-15T00:31:30;20.77;;;17.30;;
3095;SDS011;1558;42.700;23.360;2023-01-15T00:33:59;21.80;;;17.97;;
3095;SDS011;1558;42.700;23.360;2023-01-15T00:36:27;23.53;;;17.70;;
3095;SDS011;1558;42.700;23.360;2023-01-15T00:38:56;19.97;;;17.03;;
3095;SDS011;1558;42.700;23.360;2023-01-15T00:41:24;20.97;;;16.50;;
3095;SDS011;1558;42.700;23.360;2023-01-15T00:43:52;21.97;;;17.47;;
3095;SDS011;1558;42.700;23.360;2023-01-15T00:46:21;22.20;;;17.57;;
3095;SDS011;1558;42.700;23.360;2023-01-15T00:48:51;21.17;;;17.00;;
3095;SDS011;1558;42.700;23.360;2023-01-15T00:51:19;21.03;;;16.30;;
3095;SDS011;1558;42.700;23.360;2023-01-15T00:53:47;20.53;;;16.20;;
3095;SDS011;1558;42.700;23.360;2023-01-15T00:56:15;24.20;;;17.90;;
3095;SDS011;1558;42.700;23.360;2023-01-15T00:58:43;21.47;;;17.27;;
3095;SDS011;1558;42.700;23.360;2023-01-15T01:01:12;22.47;;;17.47;;
3095;SDS011;1558;42.700;23.360;2023-01-15T01:03:40;20.87;;;17.23;;
3095;SDS011;1558;42.700;23.360;2023-01-15T01:06:09;21.47;;;16.50;;
3095;SDS011;1558;42.700;23.360;2023-01-15T01:08:37;21.37;;;17.10;;
3095;SDS011;1558;42.700;23.360;2023-01-15T01:11:06;22.03;;;18.47;;
3095;SDS011;1558;42.700;23.360;2023-01-15T01:13:36;23.27;;;17.80;;
3095;SDS011;1558;42.700;23.360;2023-01-15T01:16:15;22.63;;;17.20;;
3095;SDS011;1558;42.700;23.360;2023-01-15T01:18:49;21.70;;;17.60;;
3095;SDS011;1558;42.700;23.360;2023-01-15T01:21:19;21.43;;;18.00;;
3095;SDS011;1558;42.700;23.360;2023-01-15T01:23:47;21.70;;;16.40;;
3095;SDS011;1558;42.700;23.360;2023-01-15T01:26:15;23.03;;;17.17;;
3095;SDS011;1558;42.700;23.360;2023-01-15T01:28:47;21.67;;;17.17;;
3095;SDS011;1558;42.700;23.360;2023-01-15T01:31:16;19.67;;;16.83;;
3095;SDS011;1558;42.700;23.360;2023-01-15T01:33:46;24.03;;;17.97;;
3095;SDS011;1558;42.700;23.360;2023-01-15T01:36:15;20.73;;;17.83;;
3095;SDS011;1558;42.700;23.360;2023-01-15T01:38:47;22.77;;;16.97;;
3095;SDS011;1558;42.700;23.360;2023-01-15T01:41:16;20.87;;;16.17;;
3095;SDS011;1558;42.700;23.360;2023-01-15T01:43:54;21.57;;;16.60;;
3095;SDS011;1558;42.700;23.360;2023-01-15T01:46:25;19.57;;;15.87;;
3095;SDS011;1558;42.700;23.360;2023-01-15T01:48:56;21.33;;;15.97;;
3095;SDS011;1558;42.700;23.360;2023-01-15T01:51:27;21.70;;;16.30;;
3095;SDS011;1558;42.700;23.360;2023-01-15T01:54:02;19.30;;;16.40;;
3095;SDS011;1558;42.700;23.360;2023-01-15T01:56:31;19.97;;;16.57;;
3095;SDS011;1558;42.700;23.360;2023-01-15T01:59:02;19.20;;;15.93;;
3095;SDS011;1558;42.700;23.360;2023-01-15T02:01:32;18.83;;;16.10;;
3095;SDS011;1558;42.700;23.360;2023-01-15T02:04:00;20.67;;;16.23;;
3095;SDS011;1558;42.700;23.360;2023-01-15T02:06:29;21.10;;;16.20;;
3095;SDS011;1558;42.700;23.360;2023-01-15T02:08:58;19.20;;;16.33;;
3095;SDS011;1558;42.700;23.360;2023-01-15T02:11:27;18.03;;;15.07;;
3095;SDS011;1558;42.700;23.360;2023-01-15T02:13:57;21.40;;;16.50;;
3095;SDS011;1558;42.700;23.360;2023-01-15T02:16:32;18.23;;;15.37;;
3095;SDS011;1558;42.700;23.360;2023-01-15T02:19:07;20.10;;;15.10;;
3095;SDS011;1558;42.700;23.360;2023-01-15T02:21:47;17.47;;;13.73;;
3095;SDS011;1558;42.700;23.360;2023-01-15T02:24:21;20.50;;;14.67;;
3095;SDS011;1558;42.700;23.360;2023-01-15T02:27:04;16.63;;;14.27;;
3095;SDS011;1558;42.700;23.360;2023-01-15T02:29:42;17.30;;;14.43;;
3095;SDS011;1558;42.700;23.360;2023-01-15T02:32:18;17.13;;;13.30;;
3095;SDS011;1558;42.700;23.360;2023-01-15T02:34:53;17.30;;;14.23;;
3095;SDS011;1558;42.700;23.360;2023-01-15T02:37:26;18.00;;;14.17;;
3095;SDS011;1558;42.700;23.360;2023-01-15T02:39:57;17.80;;;14.57;;
3095;SDS011;1558;42.700;23.360;2023-01-15T02:42:29;16.27;;;13.87;;
3095;SDS011;1558;42.700;23.360;2023-01-15T02:45:00;16.73;;;13.07;;
3095;SDS011;1558;42.700;23.360;2023-01-15T02:47:33;17.93;;;14.00;;
3095;SDS011;1558;42.700;23.360;2023-01-15T02:50:05;16.77;;;13.63;;
3095;SDS011;1558;42.700;23.360;2023-01-15T02:52:37;16.43;;;13.47;;
3095;SDS011;1558;42.700;23.360;2023-01-15T02:55:11;15.47;;;13.60;;
3095;SDS011;1558;42.700;23.360;2023-01-15T02:57:44;17.83;;;13.50;;
3095;SDS011;1558;42.700;23.360;2023-01-15T03:00:15;20.77;;;14.60;;
3095;SDS011;1558;42.700;23.360;2023-01-15T03:02:46;19.80;;;15.23;;
3095;SDS011;1558;42.700;23.360;2023-01-15T03:05:21;17.20;;;13.50;;
3095;SDS011;1558;42.700;23.360;2023-01-15T03:07:52;15.10;;;13.50;;
3095;SDS011;1558;42.700;23.360;2023-01-15T03:10:25;16.27;;;13.57;;
3095;SDS011;1558;42.700;23.360;2023-01-15T03:13:03;15.37;;;13.13;;
3095;SDS011;1558;42.700;23.360;2023-01-15T03:15:40;14.60;;;13.00;;
3095;SDS011;1558;42.700;23.360;2023-01-15T03:18:35;14.83;;;13.27;;
3095;SDS011;1558;42.700;23.360;2023-01-15T03:21:08;15.63;;;13.30;;
3095;SDS011;1558;42.700;23.360;2023-01-15T03:23:38;15.07;;;13.10;;
3095;SDS011;1558;42.700;23.360;2023-01-15T03:26:12;16.17;;;13.07;;
3095;SDS011;1558;42.700;23.360;2023-01-15T03:28:41;16.83;;;13.30;;
3095;SDS011;1558;42.700;23.360;2023-01-15T03:31:11;14.37;;;12.80;;
3095;SDS011;1558;42.700;23.360;2023-01-15T03:33:39;15.23;;;13.57;;
3095;SDS011;1558;42.700;23.360;2023-01-15T03:36:08;15.47;;;13.13;;
3095;SDS011;1558;42.700;23.360;2023-01-15T03:38:37;16.97;;;13.73;;
3095;SDS011;1558;42.700;23.360;2023-01-15T03:41:10;18.67;;;15.10;;
3095;SDS011;1558;42.700;23.360;2023-01-15T03:43:47;17.47;;;14.27;;
3095;SDS011;1558;42.700;23.360;2023-01-15T03:46:25;17.43;;;14.90;;
3095;SDS011;1558;42.700;23.360;2023-01-15T03:49:08;18.60;;;15.53;;
3095;SDS011;1558;42.700;23.360;2023-01-15T03:51:47;18.27;;;14.67;;
3095;SDS011;1558;42.700;23.360;2023-01-15T03:54:21;17.77;;;15.13;;
3095;SDS011;1558;42.700;23.360;2023-01-15T03:56:55;17.07;;;14.00;;
3095;SDS011;1558;42.700;23.360;2023-01-15T03:59:32;16.37;;;13.37;;
3095;SDS011;1558;42.700;23.360;2023-01-15T04:02:06;16.77;;;14.00;;
3095;SDS011;1558;42.700;23.360;2023-01-15T04:04:36;17.47;;;14.23;;
3095;SDS011;1558;42.700;23.360;2023-01-15T04:07:06;14.50;;;13.00;;
3095;SDS011;1558;42.700;23.360;2023-01-15T04:09:35;16.23;;;13.97;;
3095;SDS011;1558;42.700;23.360;2023-01-15T04:12:05;16.90;;;12.97;;
3095;SDS011;1558;42.700;23.360;2023-01-15T04:14:35;16.60;;;13.30;;
3095;SDS011;1558;42.700;23.360;2023-01-15T04:17:03;17.70;;;13.43;;
3095;SDS011;1558;42.700;23.360;2023-01-15T04:19:31;16.17;;;13.97;;
3095;SDS011;1558;42.700;23.360;2023-01-15T04:21:59;16.00;;;12.97;;
3095;SDS011;1558;42.700;23.360;2023-01-15T04:24:27;15.07;;;12.03;;
3095;SDS011;1558;42.700;23.360;2023-01-15T04:26:55;15.70;;;13.20;;
3095;SDS011;1558;42.700;23.360;2023-01-15T04:29:23;17.37;;;13.03;;
3095;SDS011;1558;42.700;23.360;2023-01-15T04:31:53;15.93;;;13.27;;
3095;SDS011;1558;42.700;23.360;2023-01-15T04:34:23;16.20;;;13.73;;
3095;SDS011;1558;42.700;23.360;2023-01-15T04:36:52;15.73;;;13.63;;
3095;SDS011;1558;42.700;23.360;2023-01-15T04:39:20;16.43;;;13.90;;
3095;SDS011;1558;42.700;23.360;2023-01-15T04:41:48;15.70;;;13.17;;
3095;SDS011;1558;42.700;23.360;2023-01-15T04:44:33;16.27;;;13.30;;
3095;SDS011;1558;42.700;23.360;2023-01-15T04:47:04;15.93;;;13.50;;
3095;SDS011;1558;42.700;23.360;2023-01-15T04:49:33;17.23;;;14.33;;
3095;SDS011;1558;42.700;23.360;2023-01-15T04:52:01;16.53;;;13.13;;
3095;SDS011;1558;42.700;23.360;2023-01-15T04:54:30;15.20;;;12.93;;
3095;SDS011;1558;42.700;23.360;2023-01-15T04:56:58;14.93;;;13.33;;
3095;SDS011;1558;42.700;23.360;2023-01-15T04:59:26;17.47;;;12.90;;
3095;SDS011;1558;42.700;23.360;2023-01-15T05:01:54;14.67;;;12.77;;
3095;SDS011;1558;42.700;23.360;2023-01-15T05:04:33;14.80;;;12.90;;
3095;SDS011;1558;42.700;23.360;2023-01-15T05:07:02;15.23;;;12.87;;
3095;SDS011;1558;42.700;23.360;2023-01-15T05:09:31;15.00;;;12.90;;
3095;SDS011;1558;42.700;23.360;2023-01-15T05:11:59;14.07;;;12.53;;
3095;SDS011;1558;42.700;23.360;2023-01-15T05:14:27;14.90;;;12.33;;
3095;SDS011;1558;42.700;23.360;2023-01-15T05:16:55;14.30;;;12.77;;
3095;SDS011;1558;42.700;23.360;2023-01-15T05:19:23;15.37;;;13.17;;
3095;SDS011;1558;42.700;23.360;2023-01-15T05:21:52;14.37;;;11.77;;
3095;SDS011;1558;42.700;23.360;2023-01-15T05:24:20;14.63;;;11.90;;
3095;SDS011;1558;42.700;23.360;2023-01-15T05:26:48;12.80;;;11.50;;
3095;SDS011;1558;42.700;23.360;2023-01-15T05:29:16;14.20;;;12.03;;
3095;SDS011;1558;42.700;23.360;2023-01-15T05:31:44;14.10;;;12.63;;
3095;SDS011;1558;42.700;23.360;2023-01-15T05:37:00;12.97;;;11.67;;
3095;SDS011;1558;42.700;23.360;2023-01-15T05:39:28;12.90;;;11.47;;
3095;SDS011;1558;42.700;23.360;2023-01-15T05:41:56;17.43;;;11.67;;
3095;SDS011;1558;42.700;23.360;2023-01-15T05:44:25;12.90;;;11.37;;
3095;SDS011;1558;42.700;23.360;2023-01-15T05:46:54;12.13;;;10.83;;
3095;SDS011;1558;42.700;23.360;2023-01-15T05:49:24;16.67;;;11.07;;
3095;SDS011;1558;42.700;23.360;2023-01-15T05:51:55;11.67;;;10.47;;
3095;SDS011;1558;42.700;23.360;2023-01-15T05:54:25;11.73;;;9.83;;
3095;SDS011;1558;42.700;23.360;2023-01-15T05:56:54;14.80;;;11.27;;
3095;SDS011;1558;42.700;23.360;2023-01-15T05:59:23;14.97;;;10.67;;
3095;SDS011;1558;42.700;23.360;2023-01-15T06:01:53;11.60;;;10.03;;
3095;SDS011;1558;42.700;23.360;2023-01-15T06:04:22;11.77;;;10.47;;
3095;SDS011;1558;42.700;23.360;2023-01-15T06:06:51;10.93;;;9.83;;
3095;SDS011;1558;42.700;23.360;2023-01-15T06:09:21;11.07;;;9.97;;
3095;SDS011;1558;42.700;23.360;2023-01-15T06:11:51;12.13;;;10.80;;
3095;SDS011;1558;42.700;23.360;2023-01-15T06:14:19;12.93;;;11.60;;
3095;SDS011;1558;42.700;23.360;2023-01-15T06:16:47;12.70;;;11.40;;
3095;SDS011;1558;42.700;23.360;2023-01-15T06:19:15;11.40;;;10.23;;
3095;SDS011;1558;42.700;23.360;2023-01-15T06:21:43;11.57;;;10.37;;
3095;SDS011;1558;42.700;23.360;2023-01-15T06:24:11;10.97;;;9.87;;
3095;SDS011;1558;42.700;23.360;2023-01-15T06:26:41;11.43;;;10.20;;
3095;SDS011;1558;42.700;23.360;2023-01-15T06:29:11;11.80;;;10.10;;
3095;SDS011;1558;42.700;23.360;2023-01-15T06:31:44;14.17;;;11.67;;
3095;SDS011;1558;42.700;23.360;2023-01-15T06:34:12;19.83;;;14.83;;
3095;SDS011;1558;42.700;23.360;2023-01-15T06:36:39;22.03;;;16.43;;
3095;SDS011;1558;42.700;23.360;2023-01-15T06:39:08;22.03;;;16.00;;
3095;SDS011;1558;42.700;23.360;2023-01-15T06:41:36;22.40;;;16.67;;
3095;SDS011;1558;42.700;23.360;2023-01-15T06:44:23;18.30;;;16.10;;
3095;SDS011;1558;42.700;23.360;2023-01-15T06:47:11;18.63;;;16.13;;
3095;SDS011;1558;42.700;23.360;2023-01-15T06:49:51;18.77;;;15.63;;
3095;SDS011;1558;42.700;23.360;2023-01-15T06:52:21;22.43;;;15.77;;
3095;SDS011;1558;42.700;23.360;2023-01-15T06:54:49;20.40;;;14.90;;
3095;SDS011;1558;42.700;23.360;2023-01-15T06:57:18;18.77;;;14.23;;
3095;SDS011;1558;42.700;23.360;2023-01-15T06:59:48;18.17;;;15.03;;
3095;SDS011;1558;42.700;23.360;2023-01-15T07:02:17;18.57;;;14.53;;
3095;SDS011;1558;42.700;23.360;2023-01-15T07:04:47;16.00;;;14.30;;
3095;SDS011;1558;42.700;23.360;2023-01-15T07:07:18;19.47;;;14.50;;
3095;SDS011;1558;42.700;23.360;2023-01-15T07:09:47;28.63;;;22.23;;
3095;SDS011;1558;42.700;23.360;2023-01-15T07:12:15;28.87;;;22.73;;
3095;SDS011;1558;42.700;23.360;2023-01-15T07:14:44;27.00;;;21.83;;
3095;SDS011;1558;42.700;23.360;2023-01-15T07:17:15;30.67;;;23.40;;
3095;SDS011;1558;42.700;23.360;2023-01-15T07:19:44;29.07;;;23.83;;
3095;SDS011;1558;42.700;23.360;2023-01-15T07:22:12;26.93;;;21.57;;
3095;SDS011;1558;42.700;23.360;2023-01-15T07:24:40;27.13;;;21.63;;
3095;SDS011;1558;42.700;23.360;2023-01-15T07:27:08;29.73;;;24.93;;
3095;SDS011;1558;42.700;23.360;2023-01-15T07:29:36;33.03;;;26.10;;
3095;SDS011;1558;42.700;23.360;2023-01-15T07:32:05;32.37;;;24.57;;
3095;SDS011;1558;42.700;23.360;2023-01-15T07:34:34;28.13;;;22.33;;
3095;SDS011;1558;42.700;23.360;2023-01-15T07:37:02;25.07;;;20.67;;
3095;SDS011;1558;42.700;23.360;2023-01-15T07:39:30;25.30;;;20.67;;
3095;SDS011;1558;42.700;23.360;2023-01-15T07:41:58;22.23;;;19.23;;
3095;SDS011;1558;42.700;23.360;2023-01-15T07:44:44;22.33;;;18.03;;
3095;SDS011;1558;42.700;23.360;2023-01-15T07:47:30;22.07;;;17.23;;
3095;SDS011;1558;42.700;23.360;2023-01-15T07:50:18;22.10;;;18.30;;
3095;SDS011;1558;42.700;23.360;2023-01-15T07:52:48;27.70;;;18.73;;
3095;SDS011;1558;42.700;23.360;2023-01-15T07:55:18;22.63;;;18.03;;
3095;SDS011;1558;42.700;23.360;2023-01-15T07:57:47;21.60;;;17.60;;
3095;SDS011;1558;42.700;23.360;2023-01-15T08:00:18;22.37;;;17.63;;
3095;SDS011;1558;42.700;23.360;2023-01-15T08:02:47;22.17;;;17.13;;
3095;SDS011;1558;42.700;23.360;2023-01-15T08:05:17;25.50;;;17.40;;
3095;SDS011;1558;42.700;23.360;2023-01-15T08:07:45;20.20;;;17.83;;
3095;SDS011;1558;42.700;23.360;2023-01-15T08:10:14;19.77;;;17.00;;
3095;SDS011;1558;42.700;23.360;2023-01-15T08:12:43;21.93;;;17.47;;
3095;SDS011;1558;42.700;23.360;2023-01-15T08:15:28;21.73;;;17.60;;
3095;SDS011;1558;42.700;23.360;2023-01-15T08:18:01;18.63;;;16.40;;
3095;SDS011;1558;42.700;23.360;2023-01-15T08:20:32;20.33;;;17.37;;
3095;SDS011;1558;42.700;23.360;2023-01-15T08:23:01;19.13;;;16.80;;
3095;SDS011;1558;42.700;23.360;2023-01-15T08:25:29;20.87;;;17.63;;
3095;SDS011;1558;42.700;23.360;2023-01-15T08:27:59;20.43;;;17.50;;
3095;SDS011;1558;42.700;23.360;2023-01-15T08:30:27;19.37;;;17.00;;
3095;SDS011;1558;42.700;23.360;2023-01-15T08:32:57;20.77;;;17.53;;
3095;SDS011;1558;42.700;23.360;2023-01-15T08:35:27;22.23;;;18.77;;
3095;SDS011;1558;42.700;23.360;2023-01-15T08:37:57;22.43;;;19.50;;
3095;SDS011;1558;42.700;23.360;2023-01-15T08:40:25;22.80;;;18.77;;
3095;SDS011;1558;42.700;23.360;2023-01-15T08:42:53;25.03;;;19.93;;
3095;SDS011;1558;42.700;23.360;2023-01-15T08:45:22;23.77;;;20.80;;
3095;SDS011;1558;42.700;23.360;2023-01-15T08:47:53;24.67;;;20.90;;
3095;SDS011;1558;42.700;23.360;2023-01-15T08:50:21;32.10;;;23.43;;
3095;SDS011;1558;42.700;23.360;2023-01-15T08:52:49;29.00;;;23.30;;
3095;SDS011;1558;42.700;23.360;2023-01-15T08:55:19;28.03;;;22.20;;
3095;SDS011;1558;42.700;23.360;2023-01-15T08:57:47;30.37;;;21.27;;
3095;SDS011;1558;42.700;23.360;2023-01-15T09:00:17;24.70;;;20.60;;
3095;SDS011;1558;42.700;23.360;2023-01-15T09:02:47;27.80;;;20.83;;
3095;SDS011;1558;42.700;23.360;2023-01-15T09:05:15;23.97;;;20.83;;
3095;SDS011;1558;42.700;23.360;2023-01-15T09:07:44;27.87;;;23.37;;
3095;SDS011;1558;42.700;23.360;2023-01-15T09:10:12;22.77;;;20.23;;
3095;SDS011;1558;42.700;23.360;2023-01-15T09:12:41;25.20;;;20.27;;
3095;SDS011;1558;42.700;23.360;2023-01-15T09:15:09;25.53;;;20.47;;
3095;SDS011;1558;42.700;23.360;2023-01-15T09:17:37;28.73;;;21.23;;
3095;SDS011;1558;42.700;23.360;2023-01-15T09:20:07;26.53;;;21.47;;
3095;SDS011;1558;42.700;23.360;2023-01-15T09:22:36;25.83;;;21.33;;
3095;SDS011;1558;42.700;23.360;2023-01-15T09:25:05;23.20;;;19.67;;
3095;SDS011;1558;42.700;23.360;2023-01-15T09:27:34;24.93;;;21.43;;
3095;SDS011;1558;42.700;23.360;2023-01-15T09:30:05;21.83;;;19.53;;
3095;SDS011;1558;42.700;23.360;2023-01-15T09:32:34;23.70;;;19.50;;
3095;SDS011;1558;42.700;23.360;2023-01-15T09:35:02;25.63;;;21.00;;
3095;SDS011;1558;42.700;23.360;2023-01-15T09:37:30;21.37;;;19.13;;
3095;SDS011;1558;42.700;23.360;2023-01-15T09:39:58;23.83;;;19.70;;
3095;SDS011;1558;42.700;23.360;2023-01-15T09:42:30;21.00;;;18.27;;
3095;SDS011;1558;42.700;23.360;2023-01-15T09:45:12;20.73;;;18.00;;
3095;SDS011;1558;42.700;23.360;2023-01-15T09:50:53;20.87;;;16.97;;
3095;SDS011;1558;42.700;23.360;2023-01-15T09:53:36;18.37;;;14.83;;
3095;SDS011;1558;42.700;23.360;2023-01-15T09:56:18;19.17;;;15.10;;
3095;SDS011;1558;42.700;23.360;2023-01-15T09:58:50;16.37;;;14.50;;
3095;SDS011;1558;42.700;23.360;2023-01-15T10:01:23;22.73;;;19.30;;
3095;SDS011;1558;42.700;23.360;2023-01-15T10:03:55;16.83;;;13.93;;
3095;SDS011;1558;42.700;23.360;2023-01-15T10:06:29;15.33;;;13.73;;
3095;SDS011;1558;42.700;23.360;2023-01-15T10:09:01;22.30;;;14.93;;
3095;SDS011;1558;42.700;23.360;2023-01-15T10:11:38;14.60;;;12.47;;
3095;SDS011;1558;42.700;23.360;2023-01-15T10:14:36;18.50;;;15.17;;
3095;SDS011;1558;42.700;23.360;2023-01-15T10:17:17;19.53;;;16.53;;
3095;SDS011;1558;42.700;23.360;2023-01-15T10:19:48;15.70;;;13.40;;
3095;SDS011;1558;42.700;23.360;2023-01-15T10:22:19;14.87;;;12.83;;
3095;SDS011;1558;42.700;23.360;2023-01-15T10:24:56;15.53;;;13.10;;
3095;SDS011;1558;42.700;23.360;2023-01-15T10:27:26;13.87;;;11.97;;
3095;SDS011;1558;42.700;23.360;2023-01-15T10:30:00;13.33;;;12.00;;
3095;SDS011;1558;42.700;23.360;2023-01-15T10:32:37;15.13;;;12.83;;
3095;SDS011;1558;42.700;23.360;2023-01-15T10:35:29;13.80;;;11.27;;
3095;SDS011;1558;42.700;23.360;2023-01-15T10:38:08;13.83;;;12.00;;
3095;SDS011;1558;42.700;23.360;2023-01-15T10:43:52;14.80;;;13.13;;
3095;SDS011;1558;42.700;23.360;2023-01-15T10:46:27;14.47;;;12.83;;
3095;SDS011;1558;42.700;23.360;2023-01-15T10:49:01;14.50;;;12.33;;
3095;SDS011;1558;42.700;23.360;2023-01-15T10:51:34;15.40;;;12.87;;
3095;SDS011;1558;42.700;23.360;2023-01-15T10:54:10;16.93;;;13.63;;
3095;SDS011;1558;42.700;23.360;2023-01-15T10:56:44;15.70;;;13.43;;
3095;SDS011;1558;42.700;23.360;2023-01-15T10:59:17;16.23;;;13.43;;
3095;SDS011;1558;42.700;23.360;2023-01-15T11:01:48;16.90;;;13.57;;
3095;SDS011;1558;42.700;23.360;2023-01-15T11:04:20;15.67;;;13.30;;
3095;SDS011;1558;42.700;23.360;2023-01-15T11:06:50;15.07;;;13.50;;
3095;SDS011;1558;42.700;23.360;2023-01-15T11:09:19;13.20;;;11.90;;
3095;SDS011;1558;42.700;23.360;2023-01-15T11:11:50;12.80;;;11.60;;
3095;SDS011;1558;42.700;23.360;2023-01-15T11:14:37;13.10;;;11.70;;
3095;SDS011;1558;42.700;23.360;2023-01-15T11:17:25;11.53;;;10.33;;
3095;SDS011;1558;42.700;23.360;2023-01-15T11:20:17;10.90;;;9.80;;
3095;SDS011;1558;42.700;23.360;2023-01-15T11:22:51;10.80;;;9.60;;
3095;SDS011;1558;42.700;23.360;2023-01-15T11:25:25;11.60;;;10.37;;
3095;SDS011;1558;42.700;23.360;2023-01-15T11:27:58;12.00;;;10.90;;
3095;SDS011;1558;42.700;23.360;2023-01-15T11:30:29;11.37;;;10.27;;
3095;SDS011;1558;42.700;23.360;2023-01-15T11:32:59;9.33;;;8.40;;
3095;SDS011;1558;42.700;23.360;2023-01-15T11:35:33;9.37;;;8.47;;
3095;SDS011;1558;42.700;23.360;2023-01-15T11:38:02;9.67;;;8.77;;
3095;SDS011;1558;42.700;23.360;2023-01-15T11:40:31;9.30;;;8.40;;
3095;SDS011;1558;42.700;23.360;2023-01-15T11:43:00;10.43;;;9.30;;
3095;SDS011;1558;42.700;23.360;2023-01-15T11:45:46;10.50;;;9.50;;
3095;SDS011;1558;42.700;23.360;2023-01-15T11:48:34;9.27;;;8.37;;
3095;SDS011;1558;42.700;23.360;2023-01-15T11:51:32;12.00;;;9.50;;
3095;SDS011;1558;42.700;23.360;2023-01-15T11:54:07;9.90;;;8.90;;
3095;SDS011;1558;42.700;23.360;2023-01-15T11:56:40;10.50;;;9.43;;
3095;SDS011;1558;42.700;23.360;2023-01-15T11:59:09;10.73;;;9.70;;
3095;SDS011;1558;42.700;23.360;2023-01-15T12:01:45;9.93;;;8.53;;
3095;SDS011;1558;42.700;23.360;2023-01-15T12:04:24;9.70;;;8.70;;
3095;SDS011;1558;42.700;23.360;2023-01-15T12:06:58;9.50;;;8.60;;
3095;SDS011;1558;42.700;23.360;2023-01-15T12:12:25;9.70;;;8.70;;
3095;SDS011;1558;42.700;23.360;2023-01-15T12:15:13;10.60;;;9.57;;
3095;SDS011;1558;42.700;23.360;2023-01-15T12:20:55;10.20;;;8.80;;
3095;SDS011;1558;42.700;23.360;2023-01-15T12:23:52;8.80;;;7.90;;
3095;SDS011;1558;42.700;23.360;2023-01-15T12:26:37;9.27;;;7.97;;
3095;SDS011;1558;42.700;23.360;2023-01-15T12:29:18;8.13;;;7.33;;
3095;SDS011;1558;42.700;23.360;2023-01-15T12:31:49;9.67;;;8.70;;
3095;SDS011;1558;42.700;23.360;2023-01-15T12:34:22;9.43;;;8.43;;
3095;SDS011;1558;42.700;23.360;2023-01-15T12:36:53;9.47;;;8.43;;
3095;SDS011;1558;42.700;23.360;2023-01-15T12:39:28;9.03;;;8.13;;
3095;SDS011;1558;42.700;23.360;2023-01-15T12:42:01;10.10;;;9.10;;
3095;SDS011;1558;42.700;23.360;2023-01-15T12:44:50;9.90;;;8.00;;
3095;SDS011;1558;42.700;23.360;2023-01-15T12:47:31;10.00;;;9.00;;
3095;SDS011;1558;42.700;23.360;2023-01-15T12:50:11;9.83;;;8.20;;
3095;SDS011;1558;42.700;23.360;2023-01-15T12:52:49;9.60;;;8.70;;
3095;SDS011;1558;42.700;23.360;2023-01-15T12:55:24;9.47;;;8.47;;
3095;SDS011;1558;42.700;23.360;2023-01-15T12:57:55;8.73;;;7.83;;
3095;SDS011;1558;42.700;23.360;2023-01-15T13:00:28;9.77;;;8.77;;
3095;SDS011;1558;42.700;23.360;2023-01-15T13:03:02;9.63;;;8.57;;
3095;SDS011;1558;42.700;23.360;2023-01-15T13:05:42;9.40;;;8.50;;
3095;SDS011;1558;42.700;23.360;2023-01-15T13:08:15;9.13;;;7.83;;
3095;SDS011;1558;42.700;23.360;2023-01-15T13:10:49;10.03;;;9.00;;
3095;SDS011;1558;42.700;23.360;2023-01-15T13:13:19;10.57;;;9.33;;
3095;SDS011;1558;42.700;23.360;2023-01-15T13:18:42;9.90;;;8.60;;
3095;SDS011;1558;42.700;23.360;2023-01-15T13:21:20;10.27;;;9.27;;
3095;SDS011;1558;42.700;23.360;2023-01-15T13:23:56;9.77;;;8.87;;
3095;SDS011;1558;42.700;23.360;2023-01-15T13:29:57;9.77;;;8.53;;
3095;SDS011;1558;42.700;23.360;2023-01-15T13:32:41;10.67;;;9.57;;
3095;SDS011;1558;42.700;23.360;2023-01-15T13:35:12;12.03;;;10.27;;
3095;SDS011;1558;42.700;23.360;2023-01-15T13:37:55;10.17;;;9.07;;
3095;SDS011;1558;42.700;23.360;2023-01-15T13:40:26;21.13;;;9.83;;
3095;SDS011;1558;42.700;23.360;2023-01-15T13:42:59;11.07;;;9.97;;
3095;SDS011;1558;42.700;23.360;2023-01-15T13:45:32;11.83;;;9.73;;
3095;SDS011;1558;42.700;23.360;2023-01-15T13:48:05;10.53;;;9.17;;
3095;SDS011;1558;42.700;23.360;2023-01-15T13:50:35;14.47;;;11.00;;
3095;SDS011;1558;42.700;23.360;2023-01-15T13:53:12;11.47;;;10.17;;
3095;SDS011;1558;42.700;23.360;2023-01-15T13:55:56;10.93;;;9.77;;
3095;SDS011;1558;42.700;23.360;2023-01-15T13:58:29;10.53;;;9.43;;
3095;SDS011;1558;42.700;23.360;2023-01-15T14:01:02;12.33;;;10.30;;
3095;SDS011;1558;42.700;23.360;2023-01-15T14:03:35;10.70;;;9.60;;
3095;SDS011;1558;42.700;23.360;2023-01-15T14:06:05;11.97;;;9.57;;
3095;SDS011;1558;42.700;23.360;2023-01-15T14:08:36;11.47;;;10.37;;
3095;SDS011;1558;42.700;23.360;2023-01-15T14:14:11;11.00;;;9.80;;
3095;SDS011;1558;42.700;23.360;2023-01-15T14:17:01;14.47;;;11.27;;
3095;SDS011;1558;42.700;23.360;2023-01-15T14:22:40;14.90;;;12.50;;
3095;SDS011;1558;42.700;23.360;2023-01-15T14:28:16;14.03;;;11.87;;
3095;SDS011;1558;42.700;23.360;2023-01-15T14:34:07;16.37;;;12.90;;
3095;SDS011;1558;42.700;23.360;2023-01-15T14:36:44;14.00;;;12.30;;
3095;SDS011;1558;42.700;23.360;2023-01-15T14:42:14;15.57;;;13.03;;
3095;SDS011;1558;42.700;23.360;2023-01-15T14:45:15;17.23;;;13.00;;
3095;SDS011;1558;42.700;23.360;2023-01-15T14:47:49;15.80;;;13.50;;
3095;SDS011;1558;42.700;23.360;2023-01-15T14:53:29;16.37;;;14.40;;
3095;SDS011;1558;42.700;23.360;2023-01-15T14:56:12;18.17;;;16.13;;
3095;SDS011;1558;42.700;23.360;2023-01-15T14:58:50;17.10;;;14.27;;
3095;SDS011;1558;42.700;23.360;2023-01-15T15:01:34;17.80;;;14.27;;
3095;SDS011;1558;42.700;23.360;2023-01-15T15:04:14;18.80;;;14.87;;
3095;SDS011;1558;42.700;23.360;2023-01-15T15:06:49;21.67;;;16.23;;
3095;SDS011;1558;42.700;23.360;2023-01-15T15:09:26;19.00;;;14.83;;
3095;SDS011;1558;42.700;23.360;2023-01-15T15:11:59;18.80;;;16.40;;
3095;SDS011;1558;42.700;23.360;2023-01-15T15:14:48;18.27;;;15.03;;
3095;SDS011;1558;42.700;23.360;2023-01-15T15:17:26;19.63;;;16.77;;
3095;SDS011;1558;42.700;23.360;2023-01-15T15:20:01;19.33;;;16.63;;
3095;SDS011;1558;42.700;23.360;2023-01-15T15:22:44;20.53;;;16.67;;
3095;SDS011;1558;42.700;23.360;2023-01-15T15:25:18;19.23;;;16.23;;
3095;SDS011;1558;42.700;23.360;2023-01-15T15:27:59;23.03;;;17.87;;
3095;SDS011;1558;42.700;23.360;2023-01-15T15:30:29;23.53;;;18.80;;
3095;SDS011;1558;42.700;23.360;2023-01-15T15:33:02;22.60;;;18.47;;
3095;SDS011;1558;42.700;23.360;2023-01-15T15:35:33;25.30;;;20.23;;
3095;SDS011;1558;42.700;23.360;2023-01-15T15:38:03;26.53;;;20.50;;
3095;SDS011;1558;42.700;23.360;2023-01-15T15:40:35;24.97;;;19.63;;
3095;SDS011;1558;42.700;23.360;2023-01-15T15:43:05;24.03;;;21.30;;
3095;SDS011;1558;42.700;23.360;2023-01-15T15:45:57;25.80;;;20.63;;
3095;SDS011;1558;42.700;23.360;2023-01-15T15:48:44;26.90;;;21.30;;
3095;SDS011;1558;42.700;23.360;2023-01-15T15:51:29;27.13;;;20.73;;